Time;durP1;ratioP1;P1;durP2;ratioP2;P2;SDS_P1;SDS_P2;PMS_P1;PMS_P2;Temp;Humidity;BMP_temperature;BMP_pressure;BME280_temperature;BME280_humidity;BME280_pressure;Samples;Min_cycle;Max_cycle;Signal;HPM_P1;HPM_P2
2023/08/11 00:08:39;;;;;;;9.25;2.63;;;;;;;;;;20923629;28;20414;-62
2023/08/11 00:18:40;;;;;;;7.90;4.63;;;;;;;;;;20921577;28;20052;-62
2023/08/11 00:28:41;;;;;;;6.13;2.00;;;;;;;;;;20919810;28;20486;-62
2023/08/11 00:38:42;;;;;;;12.95;2.47;;;;;;;;;;20920111;28;20043;-62
2023/08/11 00:48:44;;;;;;;8.88;2.28;;;;;;;;;;20919106;28;20040;-62
2023/08/11 00:58:46;;;;;;;7.30;2.55;;;;;;;;;;20918580;28;20126;-62
2023/08/11 01:08:52;;;;;;;4.93;2.22;;;;;;;;;;20918557;28;20041;-62
2023/08/11 01:18:53;;;;;;;7.78;2.20;;;;;;;;;;20917002;28;20098;-61
2023/08/11 01:28:54;;;;;;;6.20;2.35;;;;;;;;;;20917227;28;20077;-63
2023/08/11 01:38:55;;;;;;;6.38;2.00;;;;;;;;;;20915308;28;20490;-62
2023/08/11 01:48:57;;;;;;;5.03;2.00;;;;;;;;;;20915734;28;20471;-61
2023/08/11 01:58:58;;;;;;;5.15;2.10;;;;;;;;;;20915197;28;20067;-62
2023/08/11 02:09:00;;;;;;;6.13;1.90;;;;;;;;;;20914111;28;20045;-62
2023/08/11 02:19:01;;;;;;;4.65;1.90;;;;;;;;;;20912704;28;20080;-62
2023/08/11 02:29:03;;;;;;;3.90;1.98;;;;;;;;;;20912201;28;20081;-60
2023/08/11 02:39:08;;;;;;;3.88;1.77;;;;;;;;;;20911807;28;20049;-61
2023/08/11 02:49:09;;;;;;;4.85;1.48;;;;;;;;;;20923332;28;20124;-61
2023/08/11 02:59:10;;;;;;;4.90;1.85;;;;;;;;;;20929209;28;20056;-61
2023/08/11 03:09:12;;;;;;;4.82;1.65;;;;;;;;;;20927619;28;20072;-61
2023/08/11 03:19:13;;;;;;;4.75;2.00;;;;;;;;;;20927626;28;20061;-61
2023/08/11 03:29:14;;;;;;;5.90;1.90;;;;;;;;;;20927420;28;20568;-62
2023/08/11 03:39:16;;;;;;;7.05;2.30;;;;;;;;;;20925807;28;20052;-61
2023/08/11 03:49:17;;;;;;;5.78;2.17;;;;;;;;;;20925288;28;20406;-61
2023/08/11 03:59:18;;;;;;;8.75;2.00;;;;;;;;;;20924215;28;20040;-62
2023/08/11 04:09:19;;;;;;;7.10;1.65;;;;;;;;;;20923469;28;20061;-61
2023/08/11 04:19:20;;;;;;;6.30;2.15;;;;;;;;;;20922922;28;20051;-62
2023/08/11 04:29:21;;;;;;;7.35;2.40;;;;;;;;;;20922100;28;20044;-62
2023/08/11 04:39:23;;;;;;;6.30;2.58;;;;;;;;;;20921383;28;20045;-62
2023/08/11 04:49:24;;;;;;;7.85;2.10;;;;;;;;;;20920463;28;20045;-61
2023/08/11 04:59:25;;;;;;;6.82;2.67;;;;;;;;;;20919798;28;20190;-61
2023/08/11 05:09:26;;;;;;;6.07;2.28;;;;;;;;;;20917604;28;20154;-62
2023/08/11 05:19:27;;;;;;;9.07;2.35;;;;;;;;;;20917911;28;20115;-61
2023/08/11 05:29:28;;;;;;;5.25;2.80;;;;;;;;;;20917100;28;20085;-61
2023/08/11 05:39:29;;;;;;;13.23;3.25;;;;;;;;;;20916944;28;20494;-60
2023/08/11 05:49:31;;;;;;;8.23;2.70;;;;;;;;;;20914701;28;20106;-62
2023/08/11 05:59:32;;;;;;;8.77;2.95;;;;;;;;;;20915153;28;20132;-63
2023/08/11 06:09:33;;;;;;;8.63;3.13;;;;;;;;;;20914295;28;20130;-61
2023/08/11 06:19:34;;;;;;;8.10;2.97;;;;;;;;;;20913819;28;20471;-62
2023/08/11 06:29:36;;;;;;;8.00;2.42;;;;;;;;;;20913736;28;20048;-62
2023/08/11 06:39:37;;;;;;;7.90;2.60;;;;;;;;;;20912080;28;20048;-61
2023/08/11 06:49:38;;;;;;;6.03;2.10;;;;;;;;;;20912934;28;20124;-62
2023/08/11 06:59:39;;;;;;;10.32;2.92;;;;;;;;;;20912358;28;20124;-61
2023/08/11 07:09:40;;;;;;;7.55;3.72;;;;;;;;;;20911603;28;20079;-62
2023/08/11 07:19:41;;;;;;;7.90;3.30;;;;;;;;;;20910614;28;20057;-61
2023/08/11 07:29:42;;;;;;;7.97;2.97;;;;;;;;;;20912599;28;20052;-62
2023/08/11 07:39:43;;;;;;;4.75;2.22;;;;;;;;;;20925766;28;20052;-63
2023/08/11 07:49:44;;;;;;;15.90;3.03;;;;;;;;;;20924672;28;20045;-62
2023/08/11 07:59:46;;;;;;;14.75;3.33;;;;;;;;;;20923781;28;20072;-62
2023/08/11 08:09:47;;;;;;;9.95;2.83;;;;;;;;;;20922887;28;20531;-62
2023/08/11 08:19:49;;;;;;;10.85;3.72;;;;;;;;;;20922581;28;20056;-62
2023/08/11 08:29:51;;;;;;;16.75;3.13;;;;;;;;;;20920645;28;20115;-62
2023/08/11 08:39:52;;;;;;;10.73;3.03;;;;;;;;;;20921078;28;20041;-62
2023/08/11 08:49:54;;;;;;;12.90;3.90;;;;;;;;;;20918225;28;20044;-62
2023/08/11 08:59:56;;;;;;;17.85;4.10;;;;;;;;;;20919789;28;20503;-62
2023/08/11 09:09:57;;;;;;;13.77;3.17;;;;;;;;;;20918805;28;20063;-61
2023/08/11 09:19:59;;;;;;;11.65;3.45;;;;;;;;;;20917237;28;20057;-62
2023/08/11 09:30:01;;;;;;;18.48;3.25;;;;;;;;;;20916751;28;20037;-63
2023/08/11 09:40:04;;;;;;;11.35;3.13;;;;;;;;;;20916930;28;20084;-62
2023/08/11 09:50:07;;;;;;;14.00;3.40;;;;;;;;;;20915817;28;20057;-62
2023/08/11 10:00:12;;;;;;;15.75;4.00;;;;;;;;;;20915255;28;20465;-63
2023/08/11 10:10:14;;;;;;;13.52;3.15;;;;;;;;;;20913179;28;20057;-63
2023/08/11 10:20:15;;;;;;;14.73;4.55;;;;;;;;;;20914026;28;20086;-63
2023/08/11 10:30:17;;;;;;;12.77;4.30;;;;;;;;;;20913607;28;20106;-62
2023/08/11 10:40:18;;;;;;;15.35;3.92;;;;;;;;;;20913136;28;20045;-62
2023/08/11 10:50:20;;;;;;;14.15;3.33;;;;;;;;;;20912725;28;20045;-63
2023/08/11 11:00:21;;;;;;;15.05;3.75;;;;;;;;;;20911245;28;20045;-63
2023/08/11 11:10:22;;;;;;;11.70;3.17;;;;;;;;;;20921989;28;20052;-62
2023/08/11 11:20:23;;;;;;;16.20;3.38;;;;;;;;;;20927507;28;20045;-63
2023/08/11 11:30:25;;;;;;;10.18;3.22;;;;;;;;;;20926880;28;20044;-62
2023/08/11 11:40:26;;;;;;;11.48;3.50;;;;;;;;;;20926080;28;20135;-62
2023/08/11 11:50:29;;;;;;;7.20;2.65;;;;;;;;;;20924099;28;20045;-62
2023/08/11 12:00:32;;;;;;;12.02;2.80;;;;;;;;;;20924869;28;20490;-64
2023/08/11 12:10:34;;;;;;;7.20;2.50;;;;;;;;;;20923185;28;20057;-63
2023/08/11 12:20:36;;;;;;;7.97;2.30;;;;;;;;;;20923177;28;20053;-62
2023/08/11 12:30:37;;;;;;;7.72;3.05;;;;;;;;;;20922541;28;20048;-63
2023/08/11 12:40:42;;;;;;;5.25;2.55;;;;;;;;;;20921632;28;20506;-62
2023/08/11 12:50:43;;;;;;;8.52;3.10;;;;;;;;;;20919162;28;20055;-62
2023/08/11 13:00:45;;;;;;;11.20;2.70;;;;;;;;;;20918652;28;20052;-64
2023/08/11 13:10:46;;;;;;;6.15;2.63;;;;;;;;;;20918613;28;20435;-61
2023/08/11 13:20:47;;;;;;;6.53;2.85;;;;;;;;;;20918705;28;20561;-63
2023/08/11 13:30:48;;;;;;;10.45;2.67;;;;;;;;;;20917184;28;20516;-61
2023/08/11 13:40:49;;;;;;;8.32;2.60;;;;;;;;;;20917291;28;20041;-62
2023/08/11 13:50:50;;;;;;;7.53;2.50;;;;;;;;;;20916217;28;20120;-62
2023/08/11 14:00:51;;;;;;;8.90;2.83;;;;;;;;;;20914804;28;20036;-62
2023/08/11 14:10:53;;;;;;;4.93;2.17;;;;;;;;;;20914298;28;20067;-62
2023/08/11 14:20:54;;;;;;;9.15;2.75;;;;;;;;;;20913255;28;20076;-62
2023/08/11 14:30:57;;;;;;;6.22;2.55;;;;;;;;;;20913835;28;20465;-64
2023/08/11 14:40:58;;;;;;;6.70;2.45;;;;;;;;;;20916851;28;20452;-63
2023/08/11 14:50:59;;;;;;;3.97;2.33;;;;;;;;;;20929099;28;20052;-63
2023/08/11 15:01:00;;;;;;;4.53;2.30;;;;;;;;;;20929677;28;20103;-63
2023/08/11 15:11:02;;;;;;;5.30;2.17;;;;;;;;;;20928663;28;20409;-62
2023/08/11 15:21:03;;;;;;;6.47;3.28;;;;;;;;;;20928208;28;20561;-64
2023/08/11 15:31:04;;;;;;;4.85;2.45;;;;;;;;;;20927854;28;20084;-63
2023/08/11 15:41:05;;;;;;;5.53;2.30;;;;;;;;;;20926949;28;20052;-62
2023/08/11 15:51:06;;;;;;;5.72;2.90;;;;;;;;;;20923667;28;20037;-63
2023/08/11 16:01:08;;;;;;;4.13;2.05;;;;;;;;;;20925081;28;20041;-63
2023/08/11 16:11:09;;;;;;;3.92;2.08;;;;;;;;;;20923832;28;20049;-62
2023/08/11 16:21:10;;;;;;;3.80;2.38;;;;;;;;;;20921899;28;20083;-61
2023/08/11 16:31:12;;;;;;;5.22;2.10;;;;;;;;;;20923242;28;20071;-63
2023/08/11 16:41:13;;;;;;;3.10;2.45;;;;;;;;;;20922273;28;20088;-63
2023/08/11 16:51:14;;;;;;;5.82;2.50;;;;;;;;;;20921029;28;20045;-62
2023/08/11 17:01:16;;;;;;;4.38;2.25;;;;;;;;;;20920404;28;20053;-63
2023/08/11 17:11:17;;;;;;;6.18;2.30;;;;;;;;;;20918391;28;20118;-62
2023/08/11 17:21:21;;;;;;;5.82;2.08;;;;;;;;;;20917554;28;20052;-63
2023/08/11 17:31:23;;;;;;;4.78;1.95;;;;;;;;;;20917577;28;20056;-62
2023/08/11 17:41:25;;;;;;;3.97;2.38;;;;;;;;;;20915959;28;20045;-64
2023/08/11 17:51:26;;;;;;;3.63;2.15;;;;;;;;;;20917622;28;20057;-62
2023/08/11 18:01:29;;;;;;;8.05;2.30;;;;;;;;;;20915763;28;20102;-63
2023/08/11 18:11:30;;;;;;;7.37;1.90;;;;;;;;;;20914522;28;20065;-63
2023/08/11 18:21:31;;;;;;;5.55;2.03;;;;;;;;;;20914217;28;20289;-63
2023/08/11 18:31:32;;;;;;;5.50;2.20;;;;;;;;;;20914257;28;20045;-62
2023/08/11 18:41:33;;;;;;;3.25;2.20;;;;;;;;;;20913407;28;20049;-61
2023/08/11 18:51:35;;;;;;;6.18;2.63;;;;;;;;;;20912115;28;20045;-62
2023/08/11 19:01:37;;;;;;;5.18;3.28;;;;;;;;;;20912671;28;20037;-62
2023/08/11 19:11:38;;;;;;;5.95;3.03;;;;;;;;;;20912822;28;20088;-62
2023/08/11 19:21:40;;;;;;;5.53;3.15;;;;;;;;;;20912261;28;20047;-63
2023/08/11 19:31:42;;;;;;;8.13;3.22;;;;;;;;;;20921037;28;20052;-63
2023/08/11 19:41:43;;;;;;;6.40;2.75;;;;;;;;;;20926769;28;20060;-62
2023/08/11 19:51:44;;;;;;;7.03;3.50;;;;;;;;;;20925675;28;20045;-61
2023/08/11 20:01:45;;;;;;;8.95;4.53;;;;;;;;;;20925100;28;20049;-62
2023/08/11 20:11:46;;;;;;;14.55;5.00;;;;;;;;;;20923761;28;20049;-63
2023/08/11 20:21:50;;;;;;;6.95;3.65;;;;;;;;;;20923294;28;20482;-63
2023/08/11 20:31:54;;;;;;;9.27;3.22;;;;;;;;;;20921319;28;20044;-62
2023/08/11 20:41:57;;;;;;;8.50;3.70;;;;;;;;;;20921774;28;20494;-63
2023/08/11 20:52:00;;;;;;;9.10;4.10;;;;;;;;;;20920986;28;20475;-62
2023/08/11 21:02:01;;;;;;;7.38;3.30;;;;;;;;;;20919913;28;20486;-61
2023/08/11 21:12:02;;;;;;;10.57;4.70;;;;;;;;;;20918541;28;20064;-62
2023/08/11 21:22:03;;;;;;;5.40;2.95;;;;;;;;;;20918514;28;20053;-62
2023/08/11 21:32:05;;;;;;;9.93;3.33;;;;;;;;;;20917876;28;20051;-62
2023/08/11 21:42:10;;;;;;;6.40;3.63;;;;;;;;;;20917129;28;20053;-62
2023/08/11 21:52:11;;;;;;;6.95;4.35;;;;;;;;;;20914837;28;20060;-62
2023/08/11 22:02:13;;;;;;;9.00;3.22;;;;;;;;;;20915495;28;20134;-62
2023/08/11 22:12:14;;;;;;;4.85;2.70;;;;;;;;;;20914745;28;20061;-61
2023/08/11 22:22:16;;;;;;;5.63;2.83;;;;;;;;;;20914783;28;20049;-62
2023/08/11 22:32:17;;;;;;;8.95;3.60;;;;;;;;;;20914371;28;20056;-61
2023/08/11 22:42:20;;;;;;;6.75;3.08;;;;;;;;;;20913382;28;20052;-64
2023/08/11 22:52:21;;;;;;;9.07;2.38;;;;;;;;;;20911975;28;20041;-62
2023/08/11 23:02:23;;;;;;;9.30;2.50;;;;;;;;;;20915646;28;20052;-63
2023/08/11 23:12:25;;;;;;;7.47;3.53;;;;;;;;;;20928248;28;20057;-62
2023/08/11 23:22:26;;;;;;;6.35;2.45;;;;;;;;;;20926694;28;20049;-62
2023/08/11 23:32:32;;;;;;;6.68;2.55;;;;;;;;;;20927715;28;20048;-62
2023/08/11 23:42:34;;;;;;;6.05;2.67;;;;;;;;;;20925164;28;20045;-62
2023/08/11 23:52:35;;;;;;;8.52;3.00;;;;;;;;;;20925889;28;20115;-62
